Terminal Aerodrome Forecast
Issued by NWS

Home | Current Version | Previous Version | Text Only | Print | Product List | Glossary On
Versions: 1 2 3 4 5 6 7 8 9 10 11 12 13 14 15
518
FTUS42 TJSJ 240539
TAFJBQ
TAF
TJBQ 240539Z 2406/2506 11007KT P6SM VCSH SCT025
     FM241300 08013KT P6SM FEW025
     FM241630 08015G22KT P6SM VCTS BKN030CB
     FM242330 10008KT P6SM VCSH FEW025 SCT050
      AMD NOT SKED TIL 241100=

USA.gov is the U.S. government's official web portal to all federal, state and local government web resources and services.